createdAt,value
2022-09-20T00:01:50.777Z,101483.75
2022-09-20T00:04:18.331Z,101481.22
2022-09-20T00:06:45.894Z,101483.09
2022-09-20T00:09:13.429Z,101483.22
2022-09-20T00:11:41.016Z,101484.19
2022-09-20T00:14:09.296Z,101486.97
2022-09-20T00:16:40.789Z,101490.53
2022-09-20T00:19:09.641Z,101495.84
2022-09-20T00:21:37.734Z,101491.50
2022-09-20T00:24:06.167Z,101489.69
2022-09-20T00:26:34.199Z,101500.22
2022-09-20T00:29:01.813Z,101490.53
2022-09-20T00:31:29.482Z,101491.50
2022-09-20T00:34:16.971Z,101494.91
2022-09-20T00:36:45.296Z,101495.78
2022-09-20T00:39:14.871Z,101499.28
2022-09-20T00:41:43.016Z,101491.31
2022-09-20T00:44:42.922Z,101500.13
2022-09-20T00:47:16.955Z,101494.81
2022-09-20T00:49:46.503Z,101489.25
2022-09-20T00:52:14.356Z,101496.25
2022-09-20T00:54:42.251Z,101487.44
2022-09-20T00:57:09.791Z,101486.59
2022-09-20T00:59:41.200Z,101492.75
2022-09-20T01:02:13.264Z,101489.19
2022-09-20T01:04:42.078Z,101482.16
2022-09-20T01:07:13.435Z,101482.25
2022-09-20T01:09:41.052Z,101492.75
2022-09-20T01:12:14.922Z,101487.44
2022-09-20T01:14:45.081Z,101483.09
2022-09-20T01:17:14.767Z,101483.94
2022-09-20T01:19:54.872Z,101484.06
2022-09-20T01:22:27.710Z,101486.59
2022-09-20T01:25:03.658Z,101488.53
2022-09-20T01:27:51.684Z,101485.03
2022-09-20T01:30:21.085Z,101487.81
2022-09-20T01:32:59.758Z,101488.66
2022-09-20T01:35:30.061Z,101488.72
2022-09-20T01:38:13.151Z,101494.03
2022-09-20T01:40:49.486Z,101492.34
2022-09-20T01:43:27.122Z,101490.53
2022-09-20T01:45:54.879Z,101495.00
2022-09-20T01:48:30.038Z,101493.19
2022-09-20T01:51:21.384Z,101494.03
2022-09-20T01:54:21.801Z,101502.00
2022-09-20T01:57:32.708Z,101498.41
2022-09-20T02:00:17.564Z,101493.97
2022-09-20T02:03:36.576Z,101501.81
2022-09-20T02:06:19.217Z,101498.31
2022-09-20T02:09:11.686Z,101494.56
2022-09-20T02:11:51.072Z,101504.34
2022-09-20T02:14:33.221Z,101502.44
2022-09-20T02:17:09.263Z,101502.44
2022-09-20T02:19:52.743Z,101496.25
2022-09-20T02:22:49.801Z,101501.50
2022-09-20T02:25:56.604Z,101504.16
2022-09-20T02:28:33.115Z,101502.34
2022-09-20T02:31:13.754Z,101503.19
2022-09-20T02:33:58.038Z,101497.75
2022-09-20T02:36:37.298Z,101501.25
2022-09-20T02:39:11.840Z,101501.25
2022-09-20T02:41:56.517Z,101502.94
2022-09-20T02:44:44.874Z,101495.94
2022-09-20T02:47:22.472Z,101496.78
2022-09-20T02:50:09.963Z,101502.09
2022-09-20T02:52:45.079Z,101499.56
2022-09-20T02:55:18.782Z,101507.53
2022-09-20T02:57:53.960Z,101504.03
2022-09-20T03:00:25.153Z,101497.03
2022-09-20T03:03:07.275Z,101505.84
2022-09-20T03:05:50.726Z,101501.50
2022-09-20T03:08:32.975Z,101508.50
2022-09-20T03:11:07.410Z,101501.56
2022-09-20T03:13:55.423Z,101499.78
2022-09-20T03:16:32.993Z,101510.41
2022-09-20T03:19:14.334Z,101492.75
2022-09-20T03:21:53.608Z,101499.78
2022-09-20T03:24:35.990Z,101499.78
2022-09-20T03:27:09.489Z,101506.03
2022-09-20T03:29:49.957Z,101498.06
2022-09-20T03:32:33.224Z,101506.16
2022-09-20T03:35:14.140Z,101502.66
2022-09-20T03:38:03.075Z,101504.47
2022-09-20T03:40:51.527Z,101508.06
2022-09-20T03:43:35.344Z,101506.38
2022-09-20T03:46:16.896Z,101502.00
2022-09-20T03:49:06.531Z,101509.25
2022-09-20T03:51:45.987Z,101499.69
2022-09-20T03:54:35.727Z,101505.94
2022-09-20T03:57:41.796Z,101507.00
2022-09-20T04:00:21.820Z,101505.44
2022-09-20T04:03:20.032Z,101502.13
2022-09-20T04:06:00.295Z,101511.19
2022-09-20T04:08:51.475Z,101514.88
2022-09-20T04:11:26.988Z,101510.66
2022-09-20T04:14:00.150Z,101504.69
2022-09-20T04:16:38.767Z,101511.81
2022-09-20T04:19:16.172Z,101510.22
2022-09-20T04:21:49.970Z,101513.91
2022-09-20T04:24:24.824Z,101500.03
2022-09-20T04:26:59.653Z,101510.66
2022-09-20T04:29:36.056Z,101521.47
2022-09-20T04:32:14.775Z,101526.09
2022-09-20T04:35:05.080Z,101523.69
2022-09-20T04:37:34.371Z,101524.00
2022-09-20T04:40:14.978Z,101523.25
2022-09-20T04:43:12.397Z,101527.91
2022-09-20T04:46:18.712Z,101533.50
2022-09-20T04:49:20.430Z,101533.00
2022-09-20T04:52:34.338Z,101537.75
2022-09-20T04:55:25.769Z,101536.25
2022-09-20T04:58:28.064Z,101533.88
2022-09-20T05:01:31.613Z,101541.28
2022-09-20T05:04:22.639Z,101543.31
2022-09-20T05:07:18.313Z,101540.00
2022-09-20T05:10:03.716Z,101532.34
2022-09-20T05:12:49.120Z,101547.59
2022-09-20T05:15:39.000Z,101539.00
2022-09-20T05:18:44.761Z,101544.50
2022-09-20T05:21:35.308Z,101550.97
2022-09-20T05:24:19.155Z,101545.00
2022-09-20T05:27:01.198Z,101542.66
2022-09-20T05:29:35.081Z,101549.00
2022-09-20T05:32:11.037Z,101548.25
2022-09-20T05:34:47.160Z,101553.66
2022-09-20T05:37:25.266Z,101555.53
2022-09-20T05:40:02.603Z,101555.66
2022-09-20T05:42:40.631Z,101552.16
2022-09-20T05:45:23.479Z,101554.91
2022-09-20T05:47:58.971Z,101561.16
2022-09-20T05:50:40.147Z,101557.63
2022-09-20T05:53:30.558Z,101563.81
2022-09-20T05:56:09.943Z,101564.66
2022-09-20T05:58:58.030Z,101571.66
2022-09-20T06:01:31.135Z,101567.19
2022-09-20T06:04:13.619Z,101573.25
2022-09-20T06:06:57.246Z,101575.88
2022-09-20T06:09:52.297Z,101570.47
2022-09-20T06:12:35.683Z,101574.84
2022-09-20T06:15:19.583Z,101575.72
2022-09-20T06:17:57.971Z,101582.69
2022-09-20T06:20:33.796Z,101577.28
2022-09-20T06:23:04.635Z,101579.00
2022-09-20T06:25:39.190Z,101582.41
2022-09-20T06:28:14.254Z,101582.31
2022-09-20T06:30:45.691Z,101585.69
2022-09-20T06:33:17.544Z,101585.63
2022-09-20T06:35:54.744Z,101590.69
2022-09-20T06:38:56.805Z,101590.53
2022-09-20T06:41:30.497Z,101592.22
2022-09-20T06:44:01.046Z,101599.94
2022-09-20T06:46:29.851Z,101600.81
2022-09-20T06:48:58.103Z,101599.78
2022-09-20T06:51:29.179Z,101602.31
2022-09-20T06:53:58.166Z,101602.13
2022-09-20T06:56:28.834Z,101607.31
2022-09-20T06:58:56.469Z,101599.16
2022-09-20T07:01:30.029Z,101608.72
2022-09-20T07:03:58.059Z,101605.00
2022-09-20T07:06:27.255Z,101604.81
2022-09-20T07:08:54.846Z,101606.41
2022-09-20T07:11:23.346Z,101603.59
2022-09-20T07:13:53.757Z,101608.59
2022-09-20T07:16:21.975Z,101608.28
2022-09-20T07:18:52.211Z,101608.94
2022-09-20T07:21:21.491Z,101614.69
2022-09-20T07:23:51.116Z,101610.69
2022-09-20T07:26:21.275Z,101612.81
2022-09-20T07:28:50.250Z,101608.81
2022-09-20T07:31:18.942Z,101621.56
2022-09-20T07:33:46.625Z,101620.00
2022-09-20T07:36:14.383Z,101620.06
2022-09-20T07:38:43.131Z,101625.31
2022-09-20T07:41:12.022Z,101629.13
2022-09-20T07:43:39.729Z,101624.66
2022-09-20T07:46:07.360Z,101627.41
2022-09-20T07:48:36.714Z,101622.91
2022-09-20T07:51:08.943Z,101630.75
2022-09-20T07:53:37.192Z,101628.50
2022-09-20T07:56:06.884Z,101635.47
2022-09-20T07:58:36.965Z,101626.47
2022-09-20T08:01:07.134Z,101633.00
2022-09-20T08:03:35.859Z,101626.78
2022-09-20T08:06:05.757Z,101631.94
2022-09-20T08:08:33.969Z,101624.84
2022-09-20T08:11:06.711Z,101632.94
2022-09-20T08:16:26.829Z,101640.06
2022-09-20T08:18:57.070Z,101634.44
2022-09-20T08:21:25.822Z,101638.69
2022-09-20T08:23:53.771Z,101634.22
2022-09-20T08:26:24.588Z,101640.09
2022-09-20T08:28:55.423Z,101638.72
2022-09-20T08:31:24.603Z,101638.72
2022-09-20T08:33:54.367Z,101637.75
2022-09-20T08:36:24.347Z,101635.63
2022-09-20T08:41:44.755Z,101640.69
2022-09-20T08:44:18.218Z,101645.53
2022-09-20T08:46:50.879Z,101638.34
2022-09-20T08:49:26.693Z,101647.81
2022-09-20T08:51:57.911Z,101641.72
2022-09-20T08:54:32.160Z,101641.34
2022-09-20T08:57:05.142Z,101649.94
2022-09-20T08:59:34.745Z,101642.38
2022-09-20T09:02:02.347Z,101645.06
2022-09-20T09:04:36.215Z,101646.38
2022-09-20T09:07:04.255Z,101640.94
2022-09-20T09:09:37.544Z,101636.72
2022-09-20T09:12:06.860Z,101644.09
2022-09-20T09:14:59.296Z,101645.69
2022-09-20T09:17:29.201Z,101643.75
2022-09-20T09:19:57.870Z,101648.53
2022-09-20T09:22:32.147Z,101647.94
2022-09-20T09:25:32.154Z,101643.88
2022-09-20T09:28:01.861Z,101650.91
2022-09-20T09:30:32.807Z,101648.94
2022-09-20T09:33:18.279Z,101644.72
2022-09-20T09:35:53.976Z,101654.59
2022-09-20T09:38:24.604Z,101656.69
2022-09-20T09:40:53.770Z,101659.66
2022-09-20T09:43:26.969Z,101661.88
2022-09-20T09:45:57.144Z,101658.63
2022-09-20T09:48:27.575Z,101659.34
2022-09-20T09:51:10.680Z,101660.47
2022-09-20T09:53:40.143Z,101659.47
2022-09-20T09:56:26.850Z,101665.38
2022-09-20T09:59:19.771Z,101659.72
2022-09-20T10:01:58.057Z,101667.19
2022-09-20T10:04:34.145Z,101669.97
2022-09-20T10:07:10.517Z,101679.13
2022-09-20T10:09:56.575Z,101669.41
2022-09-20T10:12:38.559Z,101666.75
2022-09-20T10:15:22.980Z,101667.28
2022-09-20T10:18:02.851Z,101664.94
2022-09-20T10:20:42.683Z,101654.56
2022-09-20T10:24:02.138Z,101658.22
2022-09-20T10:26:25.484Z,101655.28
2022-09-20T10:29:03.997Z,101642.47
2022-09-20T10:31:42.488Z,101647.41
2022-09-20T10:34:43.508Z,101656.00
2022-09-20T10:37:21.493Z,101657.84
2022-09-20T10:40:00.269Z,101665.00
2022-09-20T10:42:56.503Z,101657.69
2022-09-20T10:46:03.832Z,101653.44
2022-09-20T10:48:29.324Z,101660.63
2022-09-20T10:51:05.026Z,101659.94
2022-09-20T10:53:43.231Z,101659.66
2022-09-20T10:56:24.218Z,101660.09
2022-09-20T10:59:30.241Z,101660.19
2022-09-20T11:02:14.856Z,101656.13
2022-09-20T11:05:04.715Z,101655.28
2022-09-20T11:07:46.834Z,101657.66
2022-09-20T11:10:17.551Z,101659.34
2022-09-20T11:12:51.904Z,101661.47
2022-09-20T11:15:25.371Z,101651.31
2022-09-20T11:18:02.511Z,101659.66
2022-09-20T11:20:35.323Z,101654.03
2022-09-20T11:23:11.285Z,101661.06
2022-09-20T11:25:44.395Z,101659.81
2022-09-20T11:28:18.557Z,101656.44
2022-09-20T11:30:57.048Z,101653.63
2022-09-20T11:33:29.715Z,101655.78
2022-09-20T11:36:01.595Z,101648.31
2022-09-20T11:38:34.225Z,101650.28
2022-09-20T11:41:06.019Z,101656.63
2022-09-20T11:43:35.662Z,101654.53
2022-09-20T11:46:08.653Z,101656.06
2022-09-20T11:48:43.708Z,101659.34
2022-09-20T11:51:31.312Z,101653.81
2022-09-20T11:54:21.343Z,101659.34
2022-09-20T11:56:52.242Z,101655.66
2022-09-20T11:59:34.284Z,101658.50
2022-09-20T12:02:04.495Z,101657.09
2022-09-20T12:04:36.866Z,101659.75
2022-09-20T12:07:11.521Z,101659.91
2022-09-20T12:09:45.376Z,101660.75
2022-09-20T12:12:21.206Z,101653.69
2022-09-20T12:14:55.888Z,101644.38
2022-09-20T12:18:09.067Z,101654.94
2022-09-20T12:21:04.144Z,101653.53
2022-09-20T12:23:59.402Z,101649.44
2022-09-20T12:26:41.007Z,101648.44
2022-09-20T12:29:54.104Z,101643.69
2022-09-20T12:32:56.368Z,101646.47
2022-09-20T12:36:17.738Z,101629.72
2022-09-20T12:39:06.344Z,101641.56
2022-09-20T12:41:51.443Z,101642.25
2022-09-20T12:44:32.952Z,101641.41
2022-09-20T12:47:02.902Z,101629.56
2022-09-20T12:50:09.162Z,101630.69
2022-09-20T12:53:00.506Z,101629.56
2022-09-20T12:55:52.760Z,101629.28
2022-09-20T12:58:24.193Z,101629.28
2022-09-20T13:01:14.573Z,101634.47
2022-09-20T13:03:45.078Z,101632.38
2022-09-20T13:06:26.627Z,101630.53
2022-09-20T13:09:03.652Z,101641.09
2022-09-20T13:11:37.302Z,101634.59
2022-09-20T13:14:11.661Z,101639.69
2022-09-20T13:16:48.378Z,101632.34
2022-09-20T13:19:19.293Z,101633.91
2022-09-20T13:21:54.915Z,101640.38
2022-09-20T13:24:25.770Z,101629.59
2022-09-20T13:26:56.748Z,101630.13
2022-09-20T13:29:30.033Z,101634.34
2022-09-20T13:31:58.348Z,101638.38
2022-09-20T13:34:27.454Z,101638.78
2022-09-20T13:36:59.376Z,101639.19
2022-09-20T13:39:32.470Z,101631.38
2022-09-20T13:42:03.049Z,101636.91
2022-09-20T13:44:34.284Z,101634.66
2022-09-20T13:47:02.335Z,101639.34
2022-09-20T13:49:33.438Z,101637.09
2022-09-20T13:52:21.227Z,101639.63
2022-09-20T13:54:48.849Z,101642.63
2022-09-20T13:57:22.482Z,101641.91
2022-09-20T13:59:52.508Z,101643.75
2022-09-20T14:02:24.106Z,101637.81
2022-09-20T14:04:56.674Z,101636.84
2022-09-20T14:07:27.970Z,101638.69
2022-09-20T14:09:56.568Z,101629.47
2022-09-20T14:12:25.989Z,101636.38
2022-09-20T14:14:54.747Z,101642.75
2022-09-20T14:17:25.086Z,101640.91
2022-09-20T14:19:56.519Z,101638.22
2022-09-20T14:22:27.041Z,101653.34
2022-09-20T14:25:02.742Z,101649.09
2022-09-20T14:27:31.364Z,101647.59
2022-09-20T14:29:59.801Z,101642.09
2022-09-20T14:32:48.205Z,101643.25
2022-09-20T14:35:20.243Z,101649.72
2022-09-20T14:37:50.393Z,101649.72
2022-09-20T14:40:22.788Z,101643.53
2022-09-20T14:42:54.317Z,101648.88
2022-09-20T14:45:25.529Z,101646.47
2022-09-20T14:47:57.594Z,101652.00
2022-09-20T14:50:30.032Z,101661.16
2022-09-20T14:53:03.266Z,101659.47
2022-09-20T14:55:37.120Z,101678.94
2022-09-20T14:58:10.486Z,101677.75
2022-09-20T15:00:50.405Z,101674.94
2022-09-20T15:03:25.505Z,101696.53
2022-09-20T15:05:54.979Z,101688.34
2022-09-20T15:08:23.264Z,101691.22
2022-09-20T15:10:51.476Z,101680.91
2022-09-20T15:13:19.272Z,101693.03
2022-09-20T15:15:50.988Z,101690.75
2022-09-20T15:18:22.946Z,101700.06
2022-09-20T15:20:51.302Z,101699.78
2022-09-20T15:23:20.456Z,101698.22
2022-09-20T15:25:51.311Z,101700.19
2022-09-20T15:28:19.570Z,101693.03
2022-09-20T15:30:48.192Z,101697.50
2022-09-20T15:33:15.899Z,101690.47
2022-09-20T15:35:44.768Z,101698.50
2022-09-20T15:38:13.095Z,101689.75
2022-09-20T15:40:42.951Z,101688.09
2022-09-20T15:43:16.183Z,101695.28
2022-09-20T15:45:50.417Z,101699.06
2022-09-20T15:48:20.733Z,101697.50
2022-09-20T15:51:02.141Z,101696.94
2022-09-20T15:53:33.405Z,101691.97
2022-09-20T15:56:03.908Z,101697.75
2022-09-20T15:58:36.307Z,101695.19
2022-09-20T16:01:06.364Z,101696.31
2022-09-20T16:03:35.187Z,101696.59
2022-09-20T16:06:04.973Z,101705.59
2022-09-20T16:08:33.722Z,101708.41
2022-09-20T16:11:03.646Z,101710.25
2022-09-20T16:13:31.376Z,101708.56
2022-09-20T16:16:00.756Z,101705.88
2022-09-20T16:18:46.680Z,101711.38
2022-09-20T16:21:16.151Z,101709.66
2022-09-20T16:23:48.543Z,101711.78
2022-09-20T16:26:17.962Z,101719.97
2022-09-20T16:28:47.715Z,101715.56
2022-09-20T16:31:39.811Z,101717.69
2022-09-20T16:34:12.651Z,101715.41
2022-09-20T16:36:42.256Z,101715.09
2022-09-20T16:39:10.452Z,101720.84
2022-09-20T16:41:40.504Z,101712.25
2022-09-20T16:44:08.743Z,101717.88
2022-09-20T16:46:37.263Z,101711.22
2022-09-20T16:49:07.289Z,101714.28
2022-09-20T16:51:37.659Z,101721.75
2022-09-20T16:54:07.355Z,101721.16
2022-09-20T16:56:36.281Z,101725.06
2022-09-20T16:59:07.320Z,101722.81
2022-09-20T17:01:36.762Z,101720.41
2022-09-20T17:04:05.648Z,101732.31
2022-09-20T17:06:35.172Z,101738.94
2022-09-20T17:09:03.752Z,101733.84
2022-09-20T17:11:35.829Z,101735.94
2022-09-20T17:14:06.367Z,101735.34
2022-09-20T17:16:36.319Z,101740.22
2022-09-20T17:19:07.174Z,101745.00
2022-09-20T17:21:36.904Z,101753.41
2022-09-20T17:24:06.794Z,101753.78
2022-09-20T17:26:37.478Z,101757.81
2022-09-20T17:29:09.860Z,101760.13
2022-09-20T17:31:39.054Z,101758.09
2022-09-20T17:34:08.460Z,101765.78
2022-09-20T17:36:39.130Z,101773.34
2022-09-20T17:39:09.924Z,101766.78
2022-09-20T17:41:38.354Z,101767.28
2022-09-20T17:44:09.887Z,101778.47
2022-09-20T17:46:39.365Z,101780.06
2022-09-20T17:49:08.601Z,101775.25
2022-09-20T17:51:38.032Z,101792.72
2022-09-20T17:54:06.194Z,101787.97
2022-09-20T17:56:35.384Z,101799.16
2022-09-20T17:59:04.434Z,101801.47
2022-09-20T18:01:35.532Z,101794.91
2022-09-20T18:04:04.270Z,101808.63
2022-09-20T18:06:35.262Z,101806.44
2022-09-20T18:09:05.657Z,101812.13
2022-09-20T18:11:35.666Z,101808.25
2022-09-20T18:14:04.743Z,101813.94
2022-09-20T18:16:35.028Z,101815.16
2022-09-20T18:19:03.055Z,101818.03
2022-09-20T18:21:33.388Z,101814.88
2022-09-20T18:24:00.942Z,101814.28
2022-09-20T18:26:30.280Z,101817.31
2022-09-20T18:29:00.149Z,101826.59
2022-09-20T18:31:32.128Z,101826.94
2022-09-20T18:34:01.602Z,101825.47
2022-09-20T18:36:30.808Z,101825.81
2022-09-20T18:38:59.309Z,101827.00
2022-09-20T18:41:28.848Z,101828.13
2022-09-20T18:43:57.020Z,101828.31
2022-09-20T18:46:26.956Z,101831.97
2022-09-20T18:48:56.911Z,101833.06
2022-09-20T18:51:28.677Z,101827.94
2022-09-20T18:53:56.934Z,101833.53
2022-09-20T18:56:26.829Z,101836.53
2022-09-20T18:58:56.536Z,101839.41
2022-09-20T19:02:09.510Z,101842.31
2022-09-20T19:05:11.845Z,101843.50
2022-09-20T19:07:52.134Z,101841.91
2022-09-20T19:10:27.500Z,101843.09
2022-09-20T19:13:00.663Z,101851.22
2022-09-20T19:15:47.735Z,101856.53
2022-09-20T19:18:33.227Z,101852.38
2022-09-20T19:21:09.995Z,101853.56
2022-09-20T19:23:51.186Z,101865.31
2022-09-20T19:26:22.570Z,101860.19
2022-09-20T19:28:51.160Z,101857.66
2022-09-20T19:31:24.516Z,101857.78
2022-09-20T19:33:54.866Z,101857.13
2022-09-20T19:36:23.414Z,101861.72
2022-09-20T19:39:02.355Z,101864.59
2022-09-20T19:41:41.830Z,101868.34
2022-09-20T19:44:32.285Z,101868.56
2022-09-20T19:47:18.124Z,101869.53
2022-09-20T19:49:54.114Z,101873.16
2022-09-20T19:52:22.823Z,101880.41
2022-09-20T19:54:52.674Z,101880.53
2022-09-20T19:57:22.539Z,101879.75
2022-09-20T19:59:51.876Z,101887.97
2022-09-20T20:02:19.910Z,101881.03
2022-09-20T20:04:47.876Z,101891.81
2022-09-20T20:07:27.717Z,101893.84
2022-09-20T20:10:04.925Z,101900.22
2022-09-20T20:12:40.800Z,101896.06
2022-09-20T20:15:21.422Z,101899.94
2022-09-20T20:17:58.909Z,101901.09
2022-09-20T20:20:34.867Z,101904.19
2022-09-20T20:23:32.324Z,101903.66
2022-09-20T20:26:06.720Z,101904.94
2022-09-20T20:28:34.455Z,101907.91
2022-09-20T20:31:03.069Z,101909.19
2022-09-20T20:33:31.841Z,101916.53
2022-09-20T20:36:01.611Z,101920.25
2022-09-20T20:38:37.238Z,101919.59
2022-09-20T20:41:08.539Z,101929.47
2022-09-20T20:43:37.386Z,101919.16
2022-09-20T20:46:07.054Z,101920.19
2022-09-20T20:48:36.183Z,101922.22
2022-09-20T20:51:05.989Z,101918.91
2022-09-20T20:53:35.821Z,101918.25
2022-09-20T20:56:07.271Z,101924.66
2022-09-20T20:58:36.344Z,101928.47
2022-09-20T21:01:12.389Z,101930.38
2022-09-20T21:03:41.293Z,101921.00
2022-09-20T21:06:10.086Z,101930.97
2022-09-20T21:08:39.623Z,101926.91
2022-09-20T21:11:11.687Z,101929.06
2022-09-20T21:13:39.819Z,101932.00
2022-09-20T21:16:09.956Z,101931.47
2022-09-20T21:18:38.490Z,101934.41
2022-09-20T21:21:14.833Z,101933.78
2022-09-20T21:23:43.258Z,101934.06
2022-09-20T21:26:15.361Z,101939.56
2022-09-20T21:28:44.982Z,101937.22
2022-09-20T21:31:14.138Z,101937.53
2022-09-20T21:33:43.236Z,101935.91
2022-09-20T21:36:13.157Z,101935.34
2022-09-20T21:38:41.915Z,101937.38
2022-09-20T21:41:12.703Z,101941.25
2022-09-20T21:43:42.699Z,101945.16
2022-09-20T21:46:14.400Z,101947.25
2022-09-20T21:48:42.266Z,101955.50
2022-09-20T21:51:11.514Z,101948.69
2022-09-20T21:53:40.006Z,101947.91
2022-09-20T21:56:09.386Z,101953.44
2022-09-20T21:58:39.840Z,101953.59
2022-09-20T22:01:09.947Z,101955.69
2022-09-20T22:03:39.380Z,101954.28
2022-09-20T22:06:12.900Z,101956.28
2022-09-20T22:08:42.629Z,101954.66
2022-09-20T22:11:14.785Z,101956.66
2022-09-20T22:13:46.047Z,101962.13
2022-09-20T22:16:15.496Z,101970.41
2022-09-20T22:18:44.354Z,101968.09
2022-09-20T22:21:13.962Z,101974.56
2022-09-20T22:23:42.153Z,101976.44
2022-09-20T22:26:11.542Z,101974.94
2022-09-20T22:28:39.520Z,101968.94
2022-09-20T22:31:10.524Z,101976.16
2022-09-20T22:33:42.574Z,101969.22
2022-09-20T22:36:10.471Z,101969.50
2022-09-20T22:38:38.216Z,101968.91
2022-09-20T22:41:06.044Z,101972.66
2022-09-20T22:43:34.847Z,101971.13
2022-09-20T22:46:03.309Z,101972.19
2022-09-20T22:48:32.975Z,101972.34
2022-09-20T22:51:02.011Z,101969.88
2022-09-20T22:53:31.077Z,101965.59
2022-09-20T22:56:06.806Z,101971.09
2022-09-20T22:58:35.906Z,101970.41
2022-09-20T23:01:09.437Z,101967.97
2022-09-20T23:03:39.759Z,101964.72
2022-09-20T23:06:13.198Z,101974.56
2022-09-20T23:08:40.968Z,101972.19
2022-09-20T23:11:09.173Z,101978.59
2022-09-20T23:13:36.857Z,101977.06
2022-09-20T23:16:11.941Z,101979.97
2022-09-20T23:18:41.148Z,101980.22
2022-09-20T23:21:09.298Z,101981.28
2022-09-20T23:23:37.414Z,101978.69
2022-09-20T23:26:08.406Z,101986.72
2022-09-20T23:28:36.881Z,101979.81
2022-09-20T23:31:06.833Z,101975.53
2022-09-20T23:33:34.988Z,101982.72
2022-09-20T23:36:08.235Z,101984.78
2022-09-20T23:38:36.370Z,101977.09
2022-09-20T23:41:05.056Z,101983.41
2022-09-20T23:43:33.098Z,101983.47
2022-09-20T23:46:01.117Z,101986.31
2022-09-20T23:48:29.394Z,101982.91
2022-09-20T23:50:57.579Z,101983.91
2022-09-20T23:53:26.556Z,101983.25
2022-09-20T23:55:54.212Z,101977.25
2022-09-20T23:58:21.890Z,101988.00
